Time;durP1;ratioP1;P1;durP2;ratioP2;P2;SDS_P1;SDS_P2;PMS_P1;PMS_P2;Temp;Humidity;BMP_temperature;BMP_pressure;BME280_temperature;BME280_humidity;BME280_pressure;Samples;Min_cycle;Max_cycle;Signal;HPM_P1;HPM_P2
2021/03/29 00:02:12;;;;;;;6.88;1.90;;;11.70;52.50;;;;;;6245103;23;20000;-75
2021/03/29 00:04:38;;;;;;;4.75;1.85;;;11.70;52.70;;;;;;6244589;23;20015;-75
2021/03/29 00:07:05;;;;;;;6.57;2.42;;;11.70;52.80;;;;;;6246608;23;20024;-75
2021/03/29 00:09:35;;;;;;;8.15;2.90;;;11.70;52.90;;;;;;6246720;22;20076;-74
2021/03/29 00:12:07;;;;;;;9.68;2.45;;;11.60;53.00;;;;;;6244445;23;20027;-76
2021/03/29 00:14:34;;;;;;;5.13;2.22;;;11.60;53.10;;;;;;6245078;23;20005;-75
2021/03/29 00:17:00;;;;;;;5.25;2.08;;;11.60;53.30;;;;;;6243987;23;20016;-75
2021/03/29 00:19:28;;;;;;;5.53;1.90;;;11.50;53.30;;;;;;6245084;23;20363;-75
2021/03/29 00:21:54;;;;;;;12.63;3.10;;;11.50;53.50;;;;;;6245952;22;20003;-75
2021/03/29 00:24:21;;;;;;;3.60;1.80;;;11.50;53.50;;;;;;6246244;23;20015;-75
2021/03/29 00:26:47;;;;;;;3.75;1.60;;;11.50;53.50;;;;;;6244412;23;20098;-75
2021/03/29 00:29:12;;;;;;;5.95;2.20;;;11.40;53.50;;;;;;6246578;23;20000;-74
2021/03/29 00:31:39;;;;;;;5.75;1.63;;;11.40;53.40;;;;;;6243860;23;20027;-75
2021/03/29 00:34:06;;;;;;;8.13;2.00;;;11.40;53.50;;;;;;6244975;23;20055;-75
2021/03/29 00:36:32;;;;;;;3.83;1.65;;;11.40;53.40;;;;;;6244926;23;20001;-75
2021/03/29 00:38:59;;;;;;;4.05;1.65;;;11.40;53.30;;;;;;6243710;23;20016;-75
2021/03/29 00:41:26;;;;;;;4.35;1.65;;;11.40;53.20;;;;;;6246474;23;20004;-75
2021/03/29 00:43:52;;;;;;;7.03;2.00;;;11.40;53.20;;;;;;6244228;23;20000;-75
2021/03/29 00:46:19;;;;;;;5.53;2.03;;;11.40;53.10;;;;;;6244634;23;20012;-75
2021/03/29 00:48:48;;;;;;;5.10;1.67;;;11.30;52.80;;;;;;6245768;23;20058;-75
2021/03/29 00:51:15;;;;;;;2.60;1.50;;;11.30;52.90;;;;;;6245957;22;20043;-75
2021/03/29 00:53:47;;;;;;;5.30;1.60;;;11.20;53.00;;;;;;6245647;23;19999;-75
2021/03/29 00:56:13;;;;;;;5.93;1.60;;;11.20;53.00;;;;;;6244742;23;20012;-75
2021/03/29 00:58:40;;;;;;;4.40;1.60;;;11.20;53.70;;;;;;6244076;23;20062;-80
2021/03/29 01:01:08;;;;;;;5.13;1.80;;;11.10;53.90;;;;;;6246355;23;20083;-75
2021/03/29 01:03:36;;;;;;;6.28;1.88;;;11.00;54.60;;;;;;6270087;22;20331;-75
2021/03/29 01:06:11;;;;;;;6.28;2.13;;;11.00;54.80;;;;;;6244064;23;20008;-75
2021/03/29 01:08:41;;;;;;;5.68;1.58;;;11.00;54.80;;;;;;6244771;23;20039;-75
2021/03/29 01:11:13;;;;;;;8.90;1.80;;;11.00;54.90;;;;;;6245079;23;20004;-75
2021/03/29 01:14:03;;;;;;;3.92;1.92;;;10.90;55.00;;;;;;6245758;23;19997;-75
2021/03/29 01:16:33;;;;;;;6.13;1.85;;;10.90;55.00;;;;;;6244949;23;20103;-75
2021/03/29 01:19:00;;;;;;;4.60;1.90;;;10.90;55.00;;;;;;6245531;23;20032;-75
2021/03/29 01:21:46;;;;;;;3.65;1.88;;;10.80;55.00;;;;;;6246051;23;20501;-75
2021/03/29 01:24:38;;;;;;;4.80;1.58;;;10.80;55.40;;;;;;6229583;23;20010;-75
2021/03/29 01:27:04;;;;;;;5.68;2.17;;;10.80;55.50;;;;;;6243890;23;20000;-75
2021/03/29 01:29:31;;;;;;;7.35;2.50;;;10.70;55.60;;;;;;6244397;23;20008;-74
2021/03/29 01:32:02;;;;;;;8.57;2.53;;;10.80;55.60;;;;;;6243929;23;20012;-75
2021/03/29 01:34:30;;;;;;;10.68;2.90;;;10.70;56.40;;;;;;6244534;23;20030;-75
2021/03/29 01:36:58;;;;;;;8.27;2.85;;;10.70;55.80;;;;;;6243762;23;20032;-75
2021/03/29 01:39:25;;;;;;;6.72;2.35;;;10.70;55.70;;;;;;6244245;23;20023;-75
2021/03/29 01:41:51;;;;;;;10.70;2.33;;;10.70;55.80;;;;;;6243677;23;20015;-75
2021/03/29 01:44:18;;;;;;;6.10;2.20;;;10.70;56.40;;;;;;6245964;23;20078;-74
2021/03/29 01:46:43;;;;;;;5.30;1.80;;;10.60;56.40;;;;;;6269367;22;20044;-75
2021/03/29 01:49:10;;;;;;;5.57;2.30;;;10.60;56.70;;;;;;6244310;23;20427;-75
2021/03/29 01:51:36;;;;;;;11.02;2.05;;;10.50;56.70;;;;;;6244331;23;20370;-75
2021/03/29 01:54:02;;;;;;;5.75;1.90;;;10.50;57.00;;;;;;6269049;22;20156;-75
2021/03/29 01:56:28;;;;;;;5.38;2.25;;;10.40;57.20;;;;;;6244065;23;20061;-75
2021/03/29 01:58:54;;;;;;;3.85;1.98;;;10.40;57.20;;;;;;6243386;23;20083;-75
2021/03/29 02:01:19;;;;;;;5.97;2.25;;;10.30;57.50;;;;;;6245251;23;20008;-75
2021/03/29 02:03:47;;;;;;;4.20;1.58;;;10.30;57.60;;;;;;6243551;23;20489;-75
2021/03/29 02:06:13;;;;;;;6.68;1.90;;;10.20;57.70;;;;;;6269567;22;20000;-75
2021/03/29 02:08:41;;;;;;;5.53;1.55;;;10.20;58.00;;;;;;6244008;23;20075;-75
2021/03/29 02:11:07;;;;;;;3.53;1.98;;;10.10;58.10;;;;;;6244943;23;20103;-75
2021/03/29 02:13:35;;;;;;;6.55;2.00;;;10.10;58.40;;;;;;6243579;23;20004;-74
2021/03/29 02:16:07;;;;;;;5.05;2.03;;;10.00;58.40;;;;;;6244661;22;20023;-75
2021/03/29 02:18:38;;;;;;;4.00;1.52;;;10.00;58.70;;;;;;6245566;23;20000;-74
2021/03/29 02:21:18;;;;;;;3.55;1.73;;;9.90;58.80;;;;;;6245072;23;20000;-75
2021/03/29 02:23:49;;;;;;;4.55;2.17;;;9.90;58.80;;;;;;6245396;23;20070;-75
2021/03/29 02:26:20;;;;;;;4.47;1.67;;;9.90;58.90;;;;;;6269889;22;20364;-75
2021/03/29 02:28:47;;;;;;;5.07;1.95;;;9.90;58.90;;;;;;6244931;23;20071;-75
2021/03/29 02:31:14;;;;;;;5.90;2.03;;;9.90;59.10;;;;;;6243883;23;20436;-75
2021/03/29 02:33:41;;;;;;;4.63;1.80;;;9.80;59.20;;;;;;6269495;22;20005;-74
2021/03/29 02:36:07;;;;;;;5.30;2.05;;;9.90;59.20;;;;;;6243285;23;20000;-74
2021/03/29 02:38:33;;;;;;;6.20;2.10;;;9.70;59.40;;;;;;6245369;22;20008;-74
2021/03/29 02:41:00;;;;;;;8.00;2.05;;;9.60;59.90;;;;;;6243314;23;20327;-76
2021/03/29 02:43:28;;;;;;;7.35;2.08;;;9.60;59.90;;;;;;6245120;23;19997;-75
2021/03/29 02:45:56;;;;;;;8.30;2.00;;;9.60;60.10;;;;;;6243144;23;20488;-75
2021/03/29 02:48:25;;;;;;;4.10;1.90;;;9.50;60.30;;;;;;6243963;23;20009;-75
2021/03/29 02:50:53;;;;;;;5.30;2.08;;;9.40;60.60;;;;;;6243278;23;20011;-75
2021/03/29 02:53:33;;;;;;;7.05;1.90;;;9.40;60.60;;;;;;6269274;22;20005;-74
2021/03/29 02:56:13;;;;;;;4.43;2.28;;;9.40;60.90;;;;;;6244643;23;20047;-75
2021/03/29 02:58:42;;;;;;;5.07;1.92;;;9.40;60.60;;;;;;6243873;23;20062;-74
2021/03/29 03:01:09;;;;;;;5.13;1.80;;;9.40;60.70;;;;;;6243171;23;20383;-74
2021/03/29 03:03:37;;;;;;;6.32;2.08;;;9.30;60.70;;;;;;6245368;23;19996;-74
2021/03/29 03:06:03;;;;;;;5.18;1.83;;;9.30;60.90;;;;;;6243083;23;20308;-75
2021/03/29 03:08:32;;;;;;;4.43;1.92;;;9.30;61.00;;;;;;6269618;22;20098;-74
2021/03/29 03:10:58;;;;;;;4.22;1.90;;;9.30;60.70;;;;;;6244644;23;20047;-74
2021/03/29 03:13:25;;;;;;;4.53;2.00;;;9.40;60.90;;;;;;6245378;23;20319;-74
2021/03/29 03:15:50;;;;;;;5.40;1.80;;;9.30;60.70;;;;;;6244252;23;20039;-74
2021/03/29 03:18:16;;;;;;;3.20;1.77;;;9.40;60.80;;;;;;6243781;23;20008;-74
2021/03/29 03:20:42;;;;;;;7.38;2.50;;;9.40;60.50;;;;;;6245212;23;20012;-74
2021/03/29 03:23:08;;;;;;;6.07;1.85;;;9.30;60.80;;;;;;6244468;23;20104;-75
2021/03/29 03:25:39;;;;;;;4.07;1.90;;;9.30;61.10;;;;;;6245222;23;19992;-75
2021/03/29 03:28:07;;;;;;;6.75;2.08;;;9.20;61.30;;;;;;6243152;23;20019;-75
2021/03/29 03:30:35;;;;;;;3.15;1.90;;;9.10;61.70;;;;;;6243774;23;20016;-75
2021/03/29 03:33:02;;;;;;;6.32;2.20;;;9.20;61.40;;;;;;6243061;23;19996;-75
2021/03/29 03:35:30;;;;;;;6.53;2.20;;;9.20;61.90;;;;;;6243950;23;20462;-75
2021/03/29 03:37:59;;;;;;;5.72;2.00;;;9.30;61.00;;;;;;6246405;23;20003;-76
2021/03/29 03:40:26;;;;;;;5.53;1.98;;;9.20;61.10;;;;;;6247085;23;20006;-75
2021/03/29 03:42:55;;;;;;;4.38;1.77;;;9.20;61.10;;;;;;6246358;23;20071;-75
2021/03/29 03:45:24;;;;;;;4.80;1.90;;;9.20;61.10;;;;;;6245296;23;20058;-74
2021/03/29 03:47:51;;;;;;;6.72;2.05;;;9.00;61.90;;;;;;6245877;23;20000;-74
2021/03/29 03:50:18;;;;;;;4.65;2.13;;;9.00;62.10;;;;;;6246895;22;19992;-74
2021/03/29 03:52:44;;;;;;;5.35;2.20;;;9.10;62.10;;;;;;6245492;23;20011;-74
2021/03/29 03:55:14;;;;;;;6.88;1.95;;;9.10;61.60;;;;;;6246154;23;20111;-75
2021/03/29 03:57:40;;;;;;;5.28;1.80;;;9.10;61.70;;;;;;6270793;22;19996;-74
2021/03/29 04:00:15;;;;;;;6.65;1.70;;;9.20;61.50;;;;;;6244682;23;20008;-75
2021/03/29 04:02:41;;;;;;;6.63;1.90;;;9.00;61.90;;;;;;6246833;23;20003;-74
2021/03/29 04:05:12;;;;;;;5.18;2.10;;;8.90;62.30;;;;;;6246086;23;20000;-76
2021/03/29 04:07:39;;;;;;;4.15;1.90;;;9.10;62.00;;;;;;6270722;22;20011;-75
2021/03/29 04:10:15;;;;;;;9.52;2.35;;;9.00;62.20;;;;;;6246136;22;20003;-75
2021/03/29 04:12:44;;;;;;;5.90;1.80;;;8.80;62.70;;;;;;6244959;23;20423;-75
2021/03/29 04:15:10;;;;;;;5.60;2.20;;;8.70;62.90;;;;;;6244480;23;20035;-75
2021/03/29 04:17:36;;;;;;;3.70;1.75;;;8.70;62.80;;;;;;6244609;23;20534;-75
2021/03/29 04:20:03;;;;;;;4.80;1.80;;;8.70;63.30;;;;;;6244453;23;20035;-75
2021/03/29 04:22:30;;;;;;;4.72;2.17;;;8.70;63.20;;;;;;6270541;22;20051;-75
2021/03/29 04:24:55;;;;;;;6.63;2.33;;;8.60;63.20;;;;;;6244493;23;20032;-75
2021/03/29 04:27:21;;;;;;;5.13;2.00;;;8.60;63.50;;;;;;6270578;22;20000;-75
2021/03/29 04:29:47;;;;;;;4.82;1.80;;;8.50;63.90;;;;;;6270553;22;20370;-75
2021/03/29 04:32:12;;;;;;;3.85;1.90;;;8.50;64.20;;;;;;6243920;23;20432;-75
2021/03/29 04:34:38;;;;;;;3.72;1.70;;;8.40;64.50;;;;;;6270367;22;20008;-75
2021/03/29 04:37:04;;;;;;;5.07;1.88;;;8.30;64.70;;;;;;6244184;23;20398;-76
2021/03/29 04:39:29;;;;;;;4.20;1.88;;;8.10;65.20;;;;;;6246329;22;20000;-75
2021/03/29 04:41:55;;;;;;;5.55;1.95;;;8.00;65.70;;;;;;6245843;23;20081;-76
2021/03/29 04:44:21;;;;;;;4.47;1.80;;;8.10;66.10;;;;;;6246636;23;20007;-75
2021/03/29 04:46:46;;;;;;;4.95;1.85;;;8.10;66.20;;;;;;6244310;23;20475;-75
2021/03/29 04:49:12;;;;;;;4.65;1.83;;;8.00;66.20;;;;;;6245361;23;20176;-75
2021/03/29 04:51:38;;;;;;;8.07;1.63;;;8.00;66.20;;;;;;6244963;23;20063;-75
2021/03/29 04:54:04;;;;;;;3.28;1.65;;;8.00;66.30;;;;;;6245710;23;20027;-75
2021/03/29 04:56:29;;;;;;;4.63;1.95;;;8.00;66.30;;;;;;6246271;22;20000;-75
2021/03/29 04:58:55;;;;;;;6.60;2.30;;;7.90;66.30;;;;;;6243996;23;20012;-75
2021/03/29 05:01:21;;;;;;;7.03;2.20;;;7.70;66.50;;;;;;6244553;23;20032;-76
2021/03/29 05:03:46;;;;;;;6.23;2.53;;;7.70;66.90;;;;;;6244933;23;20009;-75
2021/03/29 05:06:12;;;;;;;6.05;1.92;;;7.70;67.20;;;;;;6244160;23;20416;-75
2021/03/29 05:08:38;;;;;;;6.05;2.10;;;7.60;67.30;;;;;;6244644;23;20520;-75
2021/03/29 05:11:03;;;;;;;7.07;2.33;;;7.60;67.50;;;;;;6243882;23;20427;-75
2021/03/29 05:13:29;;;;;;;7.15;1.83;;;7.50;67.50;;;;;;6246308;23;20011;-75
2021/03/29 05:15:55;;;;;;;8.68;2.28;;;7.40;67.70;;;;;;6245302;23;20027;-77
2021/03/29 05:18:20;;;;;;;5.53;1.93;;;7.30;67.90;;;;;;6244594;23;20407;-75
2021/03/29 05:20:46;;;;;;;5.70;2.43;;;7.40;68.10;;;;;;6244405;23;20008;-75
2021/03/29 05:23:11;;;;;;;4.27;1.80;;;7.40;67.90;;;;;;6243941;23;20078;-75
2021/03/29 05:25:37;;;;;;;5.60;1.77;;;7.20;68.70;;;;;;6244609;23;20126;-75
2021/03/29 05:28:03;;;;;;;3.73;2.10;;;7.20;68.90;;;;;;6269275;22;20047;-75
2021/03/29 05:30:28;;;;;;;8.40;2.77;;;7.10;69.40;;;;;;6244596;23;20004;-75
2021/03/29 05:32:54;;;;;;;5.00;2.33;;;7.10;69.40;;;;;;6244315;23;20458;-75
2021/03/29 05:35:20;;;;;;;6.97;2.27;;;7.10;69.50;;;;;;6243812;23;20050;-74
2021/03/29 05:37:45;;;;;;;8.83;2.40;;;7.20;69.00;;;;;;6244005;23;20439;-74
2021/03/29 05:40:16;;;;;;;3.73;1.97;;;7.30;68.70;;;;;;6243745;23;20011;-73
2021/03/29 05:42:42;;;;;;;5.00;1.90;;;7.30;68.80;;;;;;6244225;23;20000;-75
2021/03/29 05:45:09;;;;;;;5.23;2.00;;;7.20;69.20;;;;;;6245168;23;20030;-75
2021/03/29 05:47:37;;;;;;;7.00;2.43;;;7.20;69.40;;;;;;6244292;23;20079;-75
2021/03/29 05:50:11;;;;;;;6.57;1.90;;;7.10;69.60;;;;;;6245153;23;20023;-75
2021/03/29 05:52:37;;;;;;;5.80;2.20;;;7.10;69.90;;;;;;6244231;23;20007;-74
2021/03/29 05:55:07;;;;;;;6.90;2.70;;;7.10;70.40;;;;;;6243387;23;20004;-74
2021/03/29 05:58:05;;;;;;;7.30;2.83;;;7.20;70.00;;;;;;6244105;23;20047;-74
2021/03/29 06:00:31;;;;;;;6.20;2.28;;;7.10;69.80;;;;;;6245033;23;20462;-74
2021/03/29 06:03:23;;;;;;;5.13;2.00;;;7.30;69.10;;;;;;6269626;22;20031;-74
2021/03/29 06:05:52;;;;;;;4.17;2.00;;;7.40;68.00;;;;;;6244087;23;20000;-74
2021/03/29 06:08:19;;;;;;;5.13;1.60;;;7.60;67.10;;;;;;6245064;22;20004;-75
2021/03/29 06:10:45;;;;;;;6.50;2.10;;;7.80;66.50;;;;;;6244027;23;20000;-74
2021/03/29 06:13:23;;;;;;;3.57;2.30;;;7.80;66.00;;;;;;6269005;22;20050;-74
2021/03/29 06:16:02;;;;;;;5.83;2.03;;;7.90;66.00;;;;;;6243507;23;20019;-74
2021/03/29 06:18:27;;;;;;;8.10;2.47;;;7.90;66.10;;;;;;6269479;22;20335;-74
2021/03/29 06:21:05;;;;;;;5.03;2.00;;;7.90;65.80;;;;;;6269271;22;20011;-75
2021/03/29 06:23:31;;;;;;;6.80;2.00;;;7.90;65.60;;;;;;6245602;23;20016;-75
2021/03/29 06:26:24;;;;;;;4.20;1.93;;;8.00;65.30;;;;;;6243938;23;20091;-75
2021/03/29 06:28:51;;;;;;;9.33;1.67;;;8.00;65.30;;;;;;6245507;23;20008;-74
2021/03/29 06:31:22;;;;;;;4.17;1.80;;;8.10;65.00;;;;;;6268230;22;20003;-76
2021/03/29 06:33:49;;;;;;;5.93;2.07;;;8.10;65.00;;;;;;6242301;23;20398;-73
2021/03/29 06:36:29;;;;;;;4.80;2.17;;;8.00;65.30;;;;;;6245244;23;20027;-73
2021/03/29 06:39:09;;;;;;;6.60;2.20;;;8.00;65.40;;;;;;6243231;22;20123;-73
2021/03/29 06:41:34;;;;;;;5.23;1.87;;;8.00;65.50;;;;;;6244088;23;20001;-73
2021/03/29 06:44:01;;;;;;;5.70;2.23;;;8.00;66.80;;;;;;6242276;23;20502;-74
2021/03/29 06:46:28;;;;;;;5.40;1.93;;;8.00;67.10;;;;;;6243261;23;20494;-73
2021/03/29 06:48:57;;;;;;;4.93;2.03;;;8.00;66.80;;;;;;6243532;23;20004;-73
2021/03/29 06:51:25;;;;;;;6.47;2.00;;;8.00;66.60;;;;;;6240352;23;20281;-73
2021/03/29 06:54:07;;;;;;;6.38;1.83;;;8.10;66.30;;;;;;6244893;23;20015;-73
2021/03/29 06:56:39;;;;;;;4.65;1.63;;;8.20;65.40;;;;;;6268809;22;20011;-73
2021/03/29 06:59:04;;;;;;;5.63;1.77;;;8.30;65.20;;;;;;6244223;22;20000;-74
2021/03/29 07:01:32;;;;;;;5.00;1.90;;;8.40;64.90;;;;;;6243235;22;20008;-74
2021/03/29 07:03:58;;;;;;;7.97;2.15;;;8.50;64.50;;;;;;6243339;23;20055;-74
2021/03/29 07:06:30;;;;;;;10.20;2.05;;;8.60;64.40;;;;;;6242244;23;20004;-74
2021/03/29 07:09:06;;;;;;;5.28;2.33;;;8.70;64.80;;;;;;6242575;23;20308;-74
2021/03/29 07:11:37;;;;;;;4.82;2.05;;;8.70;64.90;;;;;;6244050;23;20038;-73
2021/03/29 07:14:05;;;;;;;5.90;2.38;;;8.70;64.80;;;;;;6270203;22;20007;-73
2021/03/29 07:16:31;;;;;;;6.88;2.33;;;8.80;63.30;;;;;;6246214;22;20086;-72
2021/03/29 07:19:02;;;;;;;4.03;2.07;;;8.90;62.10;;;;;;6270833;22;20019;-73
2021/03/29 07:21:29;;;;;;;8.32;2.45;;;9.00;62.50;;;;;;6244880;23;20007;-72
2021/03/29 07:24:05;;;;;;;4.30;1.98;;;9.00;62.80;;;;;;6246410;23;20071;-73
2021/03/29 07:26:40;;;;;;;5.88;2.30;;;9.10;62.50;;;;;;6270532;22;20419;-73
2021/03/29 07:29:19;;;;;;;7.72;2.75;;;9.20;62.20;;;;;;6244531;23;20008;-73
2021/03/29 07:31:51;;;;;;;7.13;2.70;;;9.20;61.50;;;;;;6244980;23;20493;-73
2021/03/29 07:34:17;;;;;;;8.45;2.45;;;9.30;62.20;;;;;;6244520;23;20004;-73
2021/03/29 07:36:50;;;;;;;9.20;2.47;;;9.40;60.60;;;;;;6270674;22;20031;-73
2021/03/29 07:39:37;;;;;;;4.38;2.17;;;9.40;61.00;;;;;;6243268;23;20011;-73
2021/03/29 07:42:25;;;;;;;5.45;2.35;;;9.50;60.00;;;;;;6244074;23;20091;-73
2021/03/29 07:45:00;;;;;;;4.20;2.03;;;9.50;61.20;;;;;;6244439;23;20015;-72
2021/03/29 07:47:52;;;;;;;5.95;2.20;;;9.60;59.80;;;;;;6243702;23;20087;-73
2021/03/29 07:50:38;;;;;;;5.05;2.65;;;9.70;58.60;;;;;;6269965;22;20000;-75
2021/03/29 07:53:19;;;;;;;6.45;2.13;;;9.70;58.80;;;;;;6223041;23;20099;-75
2021/03/29 07:55:51;;;;;;;5.55;2.33;;;9.80;58.80;;;;;;6244764;23;20048;-74
2021/03/29 07:58:20;;;;;;;7.18;2.78;;;9.90;59.20;;;;;;6245399;23;20000;-73
2021/03/29 08:00:57;;;;;;;6.72;2.90;;;9.90;59.00;;;;;;6246262;23;20058;-73
2021/03/29 08:03:23;;;;;;;7.00;2.33;;;10.00;59.00;;;;;;6245571;23;20229;-73
2021/03/29 08:05:53;;;;;;;10.10;2.65;;;10.10;58.70;;;;;;6269833;22;20434;-73
2021/03/29 08:08:27;;;;;;;6.32;2.20;;;10.20;58.50;;;;;;6245596;23;20443;-74
2021/03/29 08:10:58;;;;;;;5.82;2.30;;;10.30;58.50;;;;;;6270118;22;20009;-73
2021/03/29 08:13:37;;;;;;;3.53;1.80;;;10.30;57.80;;;;;;6245036;23;20000;-76
2021/03/29 08:16:13;;;;;;;5.72;2.22;;;10.50;57.10;;;;;;6269938;22;20083;-73
2021/03/29 08:19:06;;;;;;;8.05;1.70;;;10.50;57.70;;;;;;6270098;22;20008;-73
2021/03/29 08:21:54;;;;;;;6.03;2.05;;;10.60;57.10;;;;;;6244252;22;20044;-74
2021/03/29 08:24:43;;;;;;;7.85;1.85;;;10.70;56.40;;;;;;6269476;22;20004;-74
2021/03/29 08:27:30;;;;;;;3.67;1.77;;;10.80;56.50;;;;;;6244503;23;20011;-73
2021/03/29 08:30:15;;;;;;;5.72;1.50;;;10.90;55.60;;;;;;6244497;23;20019;-73
2021/03/29 08:32:41;;;;;;;3.00;1.40;;;11.00;55.10;;;;;;6246553;23;20000;-73
2021/03/29 08:35:20;;;;;;;4.88;1.73;;;11.00;55.20;;;;;;6245287;23;20005;-71
2021/03/29 08:37:52;;;;;;;4.03;1.70;;;11.10;55.20;;;;;;6244561;23;20502;-73
2021/03/29 08:40:20;;;;;;;;;;;11.20;55.30;;;;;;6245592;23;20093;-73
2021/03/29 08:42:48;;;;;;;4.25;1.40;;;11.30;54.80;;;;;;6246299;23;20323;-73
2021/03/29 08:45:25;;;;;;;3.95;1.40;;;11.40;54.70;;;;;;6269419;22;20004;-74
2021/03/29 08:47:54;;;;;;;2.30;1.27;;;11.50;54.80;;;;;;6244549;23;20055;-72
2021/03/29 08:50:23;;;;;;;2.88;1.30;;;11.60;53.80;;;;;;6243741;23;20135;-74
2021/03/29 08:52:57;;;;;;;2.80;1.40;;;11.70;52.90;;;;;;6244429;23;20001;-73
2021/03/29 08:55:32;;;;;;;5.30;1.45;;;11.80;52.80;;;;;;6243825;23;20000;-73
2021/03/29 08:57:59;;;;;;;4.68;1.60;;;11.90;52.70;;;;;;6245871;23;20411;-72
2021/03/29 09:00:30;;;;;;;6.68;1.70;;;12.00;52.40;;;;;;6243348;23;20004;-73
2021/03/29 09:02:56;;;;;;;3.42;1.20;;;12.10;52.20;;;;;;6245940;23;20011;-73
2021/03/29 09:05:24;;;;;;;2.65;1.05;;;12.20;52.10;;;;;;6243220;23;20000;-73
2021/03/29 09:07:53;;;;;;;5.78;1.30;;;12.20;51.90;;;;;;6244186;23;20374;-73
2021/03/29 09:10:27;;;;;;;5.93;1.35;;;12.30;51.80;;;;;;6245100;23;20007;-74
2021/03/29 09:13:03;;;;;;;9.05;1.50;;;12.40;52.00;;;;;;6245771;23;20004;-74
2021/03/29 09:15:36;;;;;;;2.85;1.05;;;12.40;51.80;;;;;;6245203;23;20470;-74
2021/03/29 09:18:05;;;;;;;5.32;1.20;;;12.50;51.20;;;;;;6245137;22;20032;-74
2021/03/29 09:20:42;;;;;;;8.15;1.65;;;12.50;51.30;;;;;;6245184;23;19996;-74
2021/03/29 09:23:12;;;;;;;3.22;1.20;;;12.60;51.20;;;;;;6243723;23;20007;-74
2021/03/29 09:25:41;;;;;;;2.78;1.00;;;12.70;51.10;;;;;;6245926;23;20003;-73
2021/03/29 09:30:57;;;;;;;4.38;1.20;;;12.90;50.40;;;;;;6255978;23;20058;-77
2021/03/29 09:33:23;;;;;;;4.65;1.30;;;13.00;49.90;;;;;;6244885;23;20130;-73
2021/03/29 09:35:51;;;;;;;4.45;1.60;;;13.10;50.40;;;;;;6245651;23;20042;-72
2021/03/29 09:38:31;;;;;;;4.57;1.33;;;13.10;49.40;;;;;;6242611;23;20015;-73
2021/03/29 09:40:57;;;;;;;6.95;1.38;;;13.20;48.80;;;;;;6245705;23;19996;-73
2021/03/29 09:43:22;;;;;;;5.55;1.77;;;13.30;49.30;;;;;;6244637;23;20003;-73
2021/03/29 09:45:48;;;;;;;6.53;1.80;;;13.30;49.20;;;;;;6243650;23;20006;-72
2021/03/29 09:48:14;;;;;;;5.32;1.10;;;13.50;50.00;;;;;;6244950;23;20083;-73
2021/03/29 09:50:45;;;;;;;3.15;1.17;;;13.50;49.00;;;;;;6243799;23;20031;-73
2021/03/29 09:53:25;;;;;;;7.90;1.20;;;13.60;48.50;;;;;;6243491;23;20434;-74
2021/03/29 09:55:56;;;;;;;6.65;2.63;;;13.70;48.40;;;;;;6243925;23;20004;-73
2021/03/29 09:58:27;;;;;;;52.33;17.25;;;13.80;47.90;;;;;;6242808;23;20012;-73
2021/03/29 10:00:56;;;;;;;31.30;10.43;;;13.90;48.00;;;;;;6243314;23;20390;-74
2021/03/29 10:03:22;;;;;;;17.92;5.55;;;13.90;47.70;;;;;;6242467;23;20004;-73
2021/03/29 10:05:49;;;;;;;4.38;2.10;;;13.90;48.00;;;;;;6245448;23;20007;-73
2021/03/29 10:08:31;;;;;;;4.28;1.90;;;14.00;48.00;;;;;;6244270;23;20030;-74
2021/03/29 10:11:06;;;;;;;3.95;1.30;;;14.10;46.60;;;;;;6243593;23;20000;-73
2021/03/29 10:13:40;;;;;;;2.95;1.15;;;14.20;47.40;;;;;;6242561;23;20008;-73
2021/03/29 10:16:19;;;;;;;3.28;1.42;;;14.30;46.90;;;;;;6268642;22;20013;-73
2021/03/29 10:18:45;;;;;;;3.90;1.30;;;14.30;46.30;;;;;;6244489;23;20415;-73
2021/03/29 10:21:12;;;;;;;4.93;1.23;;;14.40;47.10;;;;;;6244339;23;20000;-74
2021/03/29 10:23:46;;;;;;;5.35;1.35;;;14.50;46.40;;;;;;6245047;23;20007;-74
2021/03/29 10:26:18;;;;;;;4.30;1.17;;;14.60;46.00;;;;;;6242836;23;19996;-73
2021/03/29 10:28:55;;;;;;;;;;;14.60;46.10;;;;;;6244904;23;20054;-73
2021/03/29 10:31:21;;;;;;;2.65;1.08;;;14.70;45.80;;;;;;6242139;23;20282;-73
2021/03/29 10:33:47;;;;;;;3.67;1.00;;;14.70;46.20;;;;;;6243161;23;20382;-73
2021/03/29 10:36:14;;;;;;;8.05;1.00;;;14.80;46.60;;;;;;6242367;23;20008;-74
2021/03/29 10:38:40;;;;;;;4.22;0.80;;;14.90;45.70;;;;;;6244106;23;20079;-73
2021/03/29 10:41:06;;;;;;;2.85;0.82;;;14.90;46.20;;;;;;6243096;23;20445;-73
2021/03/29 10:43:32;;;;;;;4.15;0.77;;;15.00;46.40;;;;;;6243350;23;20059;-73
2021/03/29 10:45:57;;;;;;;4.07;0.70;;;15.10;45.80;;;;;;6270323;22;20019;-74
2021/03/29 10:48:23;;;;;;;3.95;1.10;;;15.20;44.80;;;;;;6246113;23;20077;-75
2021/03/29 10:50:48;;;;;;;2.97;0.90;;;15.30;44.90;;;;;;6270790;22;20374;-74
2021/03/29 10:53:14;;;;;;;8.07;1.27;;;15.40;44.40;;;;;;6245926;23;20071;-74
2021/03/29 10:55:40;;;;;;;3.90;0.68;;;15.40;44.60;;;;;;6270870;22;20442;-74
2021/03/29 10:58:05;;;;;;;2.17;0.80;;;15.40;43.10;;;;;;6245403;23;20004;-73
2021/03/29 11:00:31;;;;;;;5.18;0.98;;;15.50;43.40;;;;;;6245556;23;20012;-74
2021/03/29 11:02:57;;;;;;;3.28;0.68;;;15.50;43.50;;;;;;6243833;23;20012;-74
2021/03/29 11:05:22;;;;;;;6.90;0.95;;;15.50;43.20;;;;;;6270096;22;20011;-74
2021/03/29 11:07:48;;;;;;;2.45;0.80;;;15.50;42.90;;;;;;6247066;23;20000;-73
2021/03/29 11:10:14;;;;;;;3.03;0.82;;;15.60;43.00;;;;;;6244570;23;20009;-73
2021/03/29 11:12:40;;;;;;;4.40;0.75;;;15.60;43.80;;;;;;6245110;23;20043;-73
2021/03/29 11:15:07;;;;;;;3.03;0.90;;;15.80;43.40;;;;;;6245109;23;20008;-72
2021/03/29 11:17:35;;;;;;;2.83;0.90;;;15.80;43.40;;;;;;6243642;23;20047;-73
2021/03/29 11:20:00;;;;;;;4.00;0.93;;;15.80;43.60;;;;;;6246707;23;20004;-73
2021/03/29 11:22:26;;;;;;;7.32;0.98;;;16.00;42.00;;;;;;6270037;22;20108;-73
2021/03/29 11:24:52;;;;;;;3.03;0.80;;;16.00;41.40;;;;;;6245389;23;20084;-73
2021/03/29 11:27:17;;;;;;;2.05;0.90;;;16.10;41.60;;;;;;6270128;22;20011;-74
2021/03/29 11:29:43;;;;;;;3.83;1.40;;;16.10;41.30;;;;;;6244551;23;20435;-73
2021/03/29 11:32:10;;;;;;;3.83;0.88;;;16.20;41.30;;;;;;6244820;23;20312;-74
2021/03/29 11:34:36;;;;;;;4.32;1.27;;;16.20;40.90;;;;;;6244643;23;20083;-72
2021/03/29 11:37:01;;;;;;;2.10;0.85;;;16.20;41.30;;;;;;6270470;22;20485;-73
2021/03/29 11:39:27;;;;;;;5.70;1.38;;;16.20;41.60;;;;;;6243594;23;20139;-73
2021/03/29 11:41:53;;;;;;;3.72;1.20;;;16.30;40.10;;;;;;6246244;23;20115;-73
2021/03/29 11:44:18;;;;;;;4.20;0.95;;;16.40;39.70;;;;;;6246186;23;20004;-73
2021/03/29 11:46:44;;;;;;;3.10;0.98;;;16.40;39.50;;;;;;6246075;23;20000;-73
2021/03/29 11:49:11;;;;;;;1.92;0.80;;;16.50;38.60;;;;;;6245950;23;20034;-77
2021/03/29 11:51:36;;;;;;;3.65;0.90;;;16.50;40.90;;;;;;6244973;23;20022;-73
2021/03/29 11:54:02;;;;;;;2.92;1.23;;;16.60;39.90;;;;;;6246739;23;20458;-73
2021/03/29 11:56:28;;;;;;;3.40;1.05;;;16.70;40.00;;;;;;6243686;23;20134;-73
2021/03/29 11:58:54;;;;;;;2.97;1.00;;;16.70;38.80;;;;;;6270593;22;20008;-74
2021/03/29 12:04:00;;;;;;;4.32;1.40;;;16.80;39.00;;;;;;6256749;23;20000;-74
2021/03/29 12:06:33;;;;;;;3.45;0.85;;;16.90;38.30;;;;;;6245878;23;20003;-74
2021/03/29 12:11:58;;;;;;;8.48;1.13;;;17.20;38.50;;;;;;6256707;23;20000;-73
2021/03/29 12:14:28;;;;;;;4.20;1.20;;;17.20;38.60;;;;;;6244980;23;20004;-73
2021/03/29 12:16:55;;;;;;;4.57;1.00;;;17.40;37.90;;;;;;6246246;23;20019;-73
2021/03/29 12:19:21;;;;;;;2.05;0.95;;;17.50;37.10;;;;;;6269385;22;20430;-74
2021/03/29 12:21:55;;;;;;;2.55;1.02;;;17.70;37.50;;;;;;6269784;22;20039;-73
2021/03/29 12:24:23;;;;;;;5.18;1.15;;;17.80;36.40;;;;;;6245594;23;20063;-73
2021/03/29 12:26:49;;;;;;;5.20;1.38;;;18.10;37.50;;;;;;6244350;23;20008;-73
2021/03/29 12:29:18;;;;;;;2.67;1.00;;;18.20;36.50;;;;;;6245651;23;20010;-72
2021/03/29 12:31:48;;;;;;;4.13;1.20;;;18.40;36.30;;;;;;6245894;23;19996;-72
2021/03/29 12:34:15;;;;;;;4.88;1.10;;;18.60;36.10;;;;;;6244929;23;20000;-72
2021/03/29 12:36:46;;;;;;;2.40;1.02;;;18.70;35.60;;;;;;6244567;23;20008;-72
2021/03/29 12:41:44;;;;;;;3.45;1.20;;;19.00;35.80;;;;;;6245734;23;20008;-73
2021/03/29 12:44:16;;;;;;;3.45;1.10;;;19.20;35.70;;;;;;6243710;23;20008;-76
2021/03/29 12:46:43;;;;;;;4.53;1.20;;;19.40;35.10;;;;;;6245905;23;20008;-74
2021/03/29 12:49:13;;;;;;;3.45;1.20;;;19.60;34.90;;;;;;6245691;23;20004;-73
2021/03/29 12:51:40;;;;;;;4.20;1.15;;;19.80;33.90;;;;;;6245815;23;20008;-73
2021/03/29 12:54:19;;;;;;;5.50;1.30;;;19.80;33.30;;;;;;6269666;22;20009;-73
2021/03/29 12:56:44;;;;;;;6.53;1.33;;;20.00;33.40;;;;;;6243244;23;20791;-73
2021/03/29 12:59:10;;;;;;;8.45;1.42;;;20.20;33.80;;;;;;6244702;23;20000;-75
2021/03/29 13:01:38;;;;;;;3.92;1.17;;;20.30;33.70;;;;;;6243831;23;20027;-75
2021/03/29 13:04:23;;;;;;;2.13;0.98;;;20.40;32.60;;;;;;6245588;23;19992;-76
2021/03/29 13:09:58;;;;;;;2.47;1.20;;;20.70;31.70;;;;;;6255091;23;20084;-75
2021/03/29 13:12:25;;;;;;;3.63;1.10;;;20.90;32.00;;;;;;6243547;23;20000;-76
2021/03/29 13:15:11;;;;;;;3.00;0.85;;;21.40;31.90;;;;;;6246060;23;20004;-74
2021/03/29 13:17:42;;;;;;;7.15;1.23;;;22.00;31.20;;;;;;6243907;23;20016;-74